Time;durP1;ratioP1;P1;durP2;ratioP2;P2;SDS_P1;SDS_P2;PMS_P1;PMS_P2;Temp;Humidity;BMP_temperature;BMP_pressure;BME280_temperature;BME280_humidity;BME280_pressure;Samples;Min_cycle;Max_cycle;Signal;HPM_P1;HPM_P2
2022/07/27 00:01:37;;;;;;;4.85;1.00;;;;;;;22.29;35.64;101284.75;5026467;28;96907;-70
2022/07/27 00:04:05;;;;;;;5.80;1.17;;;;;;;22.20;35.20;101280.06;5037685;27;99157;-70
2022/07/27 00:06:32;;;;;;;5.30;1.15;;;;;;;21.79;35.48;101275.91;5030901;28;98814;-70
2022/07/27 00:08:59;;;;;;;5.85;1.40;;;;;;;21.62;35.40;101278.97;5033451;28;97135;-70
2022/07/27 00:11:25;;;;;;;7.80;1.00;;;;;;;21.94;35.48;101278.44;5034349;28;97730;-69
2022/07/27 00:13:52;;;;;;;3.13;0.88;;;;;;;21.94;35.47;101286.50;5033765;28;99193;-70
2022/07/27 00:16:21;;;;;;;5.88;1.25;;;;;;;21.87;35.34;101286.09;5032139;27;101544;-70
2022/07/27 00:18:47;;;;;;;5.60;1.00;;;;;;;22.01;35.31;101287.81;5033902;27;97441;-70
2022/07/27 00:21:15;;;;;;;6.57;1.00;;;;;;;21.87;35.30;101286.09;5033956;27;97162;-70
2022/07/27 00:23:41;;;;;;;3.65;1.10;;;;;;;21.99;35.73;101287.91;5031378;28;98972;-71
2022/07/27 00:26:08;;;;;;;3.70;0.68;;;;;;;21.87;35.63;101284.28;5031754;27;99171;-71
2022/07/27 00:28:35;;;;;;;4.82;1.00;;;;;;;21.97;35.69;101292.56;5031238;27;96832;-70
2022/07/27 00:31:01;;;;;;;6.75;0.98;;;;;;;21.63;35.81;101296.84;5033884;27;98763;-70
2022/07/27 00:33:27;;;;;;;8.98;1.00;;;;;;;21.60;36.28;101294.38;5031016;28;98203;-70
2022/07/27 00:35:54;;;;;;;6.47;1.35;;;;;;;21.31;36.59;101283.03;5035329;27;100601;-70
2022/07/27 00:38:21;;;;;;;5.97;1.25;;;;;;;21.37;36.88;101279.91;5030813;28;97241;-70
2022/07/27 00:40:48;;;;;;;4.90;0.80;;;;;;;21.62;36.67;101281.66;5036546;27;96958;-70
2022/07/27 00:43:14;;;;;;;7.53;1.48;;;;;;;21.77;36.64;101272.50;5030469;27;97557;-70
2022/07/27 00:45:40;;;;;;;10.80;1.30;;;;;;;21.84;36.04;101272.91;5034047;27;98699;-70
2022/07/27 00:48:07;;;;;;;8.68;1.17;;;;;;;21.42;36.60;101272.38;5032266;27;97690;-70
2022/07/27 00:50:34;;;;;;;11.85;1.30;;;;;;;21.66;36.99;101268.88;5035172;28;97420;-69
2022/07/27 00:53:21;;;;;;;6.45;1.10;;;;;;;21.70;36.64;101278.44;5029063;28;99374;-70
2022/07/27 00:55:48;;;;;;;8.10;1.27;;;;;;;21.70;36.69;101275.75;5027932;28;99285;-70
2022/07/27 00:58:16;;;;;;;7.40;0.95;;;;;;;21.57;37.21;101286.53;5031477;27;96878;-70
2022/07/27 01:00:42;;;;;;;5.18;1.23;;;;;;;21.58;37.29;101288.25;5027121;28;96898;-70
2022/07/27 01:03:09;;;;;;;5.50;1.58;;;;;;;21.71;37.10;101280.16;5031581;28;98993;-69
2022/07/27 01:05:36;;;;;;;10.35;1.25;;;;;;;21.40;37.60;101284.19;5033406;28;98969;-69
2022/07/27 01:08:03;;;;;;;5.95;0.90;;;;;;;21.68;37.56;101289.28;5029475;27;97333;-69
2022/07/27 01:10:30;;;;;;;5.32;1.15;;;;;;;21.49;37.61;101286.22;5033433;28;96919;-70
2022/07/27 01:12:58;;;;;;;4.45;1.10;;;;;;;21.13;38.30;101288.84;5021627;27;98891;-70
2022/07/27 01:15:25;;;;;;;5.45;1.23;;;;;;;20.91;38.70;101289.50;5032505;28;98804;-70
2022/07/27 01:17:51;;;;;;;5.93;1.00;;;;;;;20.76;39.43;101282.50;5033088;28;96876;-69
2022/07/27 01:20:17;;;;;;;10.50;1.25;;;;;;;20.84;39.13;101291.75;5031581;27;99330;-71
2022/07/27 01:22:45;;;;;;;3.38;1.00;;;;;;;20.71;39.54;101290.88;5031026;28;98007;-70
2022/07/27 01:25:12;;;;;;;5.88;1.05;;;;;;;20.88;39.18;101295.91;5033736;27;99178;-70
2022/07/27 01:27:38;;;;;;;5.03;1.38;;;;;;;20.81;39.13;101289.25;5031985;27;97396;-70
2022/07/27 01:30:25;;;;;;;5.00;1.02;;;;;;;20.76;39.36;101287.84;5030819;27;97885;-70
2022/07/27 01:32:52;;;;;;;7.35;1.40;;;;;;;20.46;39.63;101290.84;5026730;28;99351;-70
2022/07/27 01:35:18;;;;;;;8.68;1.30;;;;;;;20.88;39.39;101287.88;5032533;28;99106;-69
2022/07/27 01:37:46;;;;;;;8.95;1.00;;;;;;;20.48;39.78;101286.22;5033567;27;97676;-70
2022/07/27 01:40:12;;;;;;;7.82;1.52;;;;;;;20.75;39.52;101287.00;5033042;27;96943;-71
2022/07/27 01:42:39;;;;;;;3.30;0.88;;;;;;;20.57;40.06;101302.56;5026759;28;98344;-70
2022/07/27 01:45:07;;;;;;;4.80;1.42;;;;;;;20.29;40.34;101306.22;5031468;27;98926;-72
2022/07/27 01:47:33;;;;;;;7.60;1.10;;;;;;;20.05;40.70;101302.50;5027549;27;97100;-71
2022/07/27 01:49:59;;;;;;;4.18;0.90;;;;;;;20.05;40.74;101305.16;5031712;28;96873;-71
2022/07/27 01:52:26;;;;;;;7.03;0.95;;;;;;;20.10;40.69;101303.03;5030443;28;101364;-71
2022/07/27 01:54:54;;;;;;;12.90;3.15;;;;;;;20.23;40.77;101297.72;5034264;27;99203;-71
2022/07/27 01:57:20;;;;;;;10.13;1.30;;;;;;;20.34;40.59;101297.03;5025708;28;97264;-71
2022/07/27 01:59:46;;;;;;;6.93;1.38;;;;;;;20.29;40.59;101306.22;5028503;27;97232;-70
2022/07/27 02:02:14;;;;;;;2.67;0.90;;;;;;;19.81;41.73;101306.78;5027234;28;98933;-70
2022/07/27 02:04:41;;;;;;;8.00;1.25;;;;;;;19.97;41.69;101310.19;5031845;28;102235;-70
2022/07/27 02:07:07;;;;;;;6.88;1.13;;;;;;;19.83;41.48;101307.53;5025694;27;98709;-71
2022/07/27 02:09:34;;;;;;;5.65;1.40;;;;;;;20.09;41.19;101298.63;5031533;28;98649;-71
2022/07/27 02:14:46;;;;;;;5.45;1.90;;;;;;;19.47;42.13;101289.34;5031235;28;97115;-71
2022/07/27 02:17:12;;;;;;;5.90;1.30;;;;;;;19.63;42.28;101290.06;5030698;28;98130;-70
2022/07/27 02:19:39;;;;;;;8.38;1.30;;;;;;;19.66;42.32;101297.03;5029621;27;98588;-71
2022/07/27 02:22:06;;;;;;;4.22;1.00;;;;;;;19.83;42.08;101291.44;5028298;27;99308;-71
2022/07/27 02:24:32;;;;;;;10.07;1.17;;;;;;;19.68;42.21;101300.50;5031751;28;99256;-71
2022/07/27 02:26:59;;;;;;;7.97;0.98;;;;;;;19.30;43.02;101297.53;5029298;28;99045;-69
2022/07/27 02:29:26;;;;;;;7.38;0.73;;;;;;;19.47;43.13;101300.06;5031868;27;97110;-70
2022/07/27 02:31:53;;;;;;;4.95;1.10;;;;;;;19.76;42.81;101304.38;5029261;28;99297;-70
2022/07/27 02:34:19;;;;;;;1.75;0.95;;;;;;;19.83;42.42;101302.16;5030644;28;99032;-70
2022/07/27 02:36:45;;;;;;;11.93;1.55;;;;;;;19.62;42.72;101314.31;5029599;28;96861;-70
2022/07/27 02:39:12;;;;;;;4.47;1.00;;;;;;;19.59;43.27;101311.81;5023286;27;97701;-71
2022/07/27 02:41:38;;;;;;;6.15;1.48;;;;;;;19.48;43.24;101307.13;5029150;28;99421;-71
2022/07/27 02:44:05;;;;;;;5.43;0.95;;;;;;;19.44;43.59;101317.13;5030697;27;99031;-71
2022/07/27 02:46:33;;;;;;;4.03;0.65;;;;;;;19.42;43.32;101311.03;5026183;28;97555;-70
2022/07/27 02:48:59;;;;;;;8.52;1.38;;;;;;;19.52;43.92;101307.78;5031794;27;97026;-70
2022/07/27 02:51:25;;;;;;;4.97;1.30;;;;;;;19.19;43.93;101310.75;5032190;28;99058;-70
2022/07/27 02:53:52;;;;;;;5.13;1.40;;;;;;;18.98;44.44;101311.13;5026476;28;99781;-70
2022/07/27 02:56:18;;;;;;;4.28;1.02;;;;;;;19.18;44.29;101315.25;5034344;27;97332;-69
2022/07/27 02:58:45;;;;;;;3.13;0.88;;;;;;;18.91;44.65;101306.22;5031200;27;97693;-70
2022/07/27 03:01:11;;;;;;;4.72;0.70;;;;;;;19.13;44.29;101303.94;5032789;27;99005;-70
2022/07/27 03:03:39;;;;;;;4.95;1.48;;;;;;;18.84;45.24;101302.22;5027798;27;99178;-69
2022/07/27 03:06:06;;;;;;;6.43;0.95;;;;;;;18.90;45.00;101308.06;5031477;28;98098;-70
2022/07/27 03:08:32;;;;;;;7.90;1.02;;;;;;;18.84;45.14;101307.59;5028420;28;98429;-70
2022/07/27 03:10:59;;;;;;;5.32;0.90;;;;;;;18.78;45.39;101306.09;5031948;27;98919;-70
2022/07/27 03:13:25;;;;;;;5.85;0.98;;;;;;;19.00;44.68;101311.88;5034182;27;99147;-70
2022/07/27 03:15:52;;;;;;;4.13;0.90;;;;;;;19.03;44.94;101311.69;5034870;27;96781;-70
2022/07/27 03:18:18;;;;;;;4.53;0.93;;;;;;;18.90;45.34;101310.75;5032332;27;97004;-71
2022/07/27 03:20:46;;;;;;;5.13;1.02;;;;;;;19.17;44.78;101310.84;5035167;27;98960;-70
2022/07/27 03:23:12;;;;;;;5.57;1.55;;;;;;;19.21;44.50;101307.03;5034089;27;98964;-71
2022/07/27 03:25:39;;;;;;;4.40;0.98;;;;;;;19.04;44.75;101309.88;5030303;27;96940;-70
2022/07/27 03:28:05;;;;;;;9.25;1.45;;;;;;;19.00;44.66;101316.38;5032327;27;96962;-71
2022/07/27 03:30:32;;;;;;;4.97;1.23;;;;;;;19.04;44.82;101309.88;5033779;27;98962;-70
2022/07/27 03:32:59;;;;;;;3.85;0.90;;;;;;;19.11;44.77;101314.75;5032522;27;98810;-70
2022/07/27 03:35:25;;;;;;;4.57;1.00;;;;;;;18.76;45.45;101320.56;5029206;28;96939;-71
2022/07/27 03:37:53;;;;;;;5.53;0.90;;;;;;;18.78;45.55;101327.53;5030753;27;98549;-72
2022/07/27 03:40:19;;;;;;;5.72;1.35;;;;;;;18.94;45.34;101330.16;5033845;28;98916;-70
2022/07/27 03:42:46;;;;;;;7.57;1.33;;;;;;;19.15;45.63;101336.00;5032521;28;98958;-69
2022/07/27 03:45:12;;;;;;;7.10;1.10;;;;;;;19.21;45.03;101325.78;5032631;27;97237;-70
2022/07/27 03:47:39;;;;;;;7.60;1.20;;;;;;;19.21;45.29;101325.78;5033358;27;97055;-70
2022/07/27 03:50:06;;;;;;;5.30;1.15;;;;;;;18.97;45.71;101327.31;5036514;27;99182;-70
2022/07/27 03:52:32;;;;;;;9.23;1.08;;;;;;;19.16;45.00;101330.56;5028609;28;98972;-70
2022/07/27 03:55:00;;;;;;;3.97;0.90;;;;;;;18.90;45.56;101325.94;5032323;28;97570;-71
2022/07/27 03:57:26;;;;;;;4.50;1.10;;;;;;;18.96;45.75;101326.44;5033729;27;96783;-69
2022/07/27 03:59:53;;;;;;;4.57;1.33;;;;;;;19.25;45.46;101335.34;5029135;28;99077;-69
2022/07/27 04:02:19;;;;;;;4.70;1.35;;;;;;;19.03;45.36;101332.28;5033472;28;98729;-71
2022/07/27 04:04:45;;;;;;;9.38;1.95;;;;;;;19.17;45.35;101326.91;5033861;27;97052;-71
2022/07/27 04:07:12;;;;;;;10.35;1.30;;;;;;;18.97;45.60;101330.81;5033694;28;97121;-71
2022/07/27 04:09:38;;;;;;;6.57;1.08;;;;;;;19.06;45.37;101330.25;5031143;28;99234;-71
2022/07/27 04:12:07;;;;;;;5.88;1.60;;;;;;;19.00;45.40;101329.78;5033918;27;98959;-71
2022/07/27 04:14:33;;;;;;;8.90;1.25;;;;;;;19.13;44.83;101338.78;5033917;28;97232;-70
2022/07/27 04:16:59;;;;;;;9.13;1.45;;;;;;;18.83;45.88;101332.63;5029402;27;97557;-71
2022/07/27 04:19:26;;;;;;;12.43;2.00;;;;;;;19.04;45.25;101333.97;5028161;27;99292;-70
2022/07/27 04:21:52;;;;;;;3.00;0.90;;;;;;;18.68;46.10;101337.94;5030036;27;98728;-71
2022/07/27 04:24:19;;;;;;;10.55;1.38;;;;;;;18.99;45.29;101331.59;5031946;27;97012;-70
2022/07/27 04:26:45;;;;;;;7.90;1.35;;;;;;;19.15;45.02;101331.53;5032251;28;97033;-70
2022/07/27 04:29:13;;;;;;;4.70;1.20;;;;;;;18.73;45.92;101323.41;5033426;27;98924;-70
2022/07/27 04:31:39;;;;;;;6.18;1.55;;;;;;;18.99;45.29;101320.88;5033817;27;98882;-70
2022/07/27 04:34:05;;;;;;;7.82;1.20;;;;;;;19.43;44.51;101325.28;5031162;28;96927;-69
2022/07/27 04:36:32;;;;;;;2.67;1.42;;;;;;;19.16;44.56;101317.16;5038827;27;96849;-70
2022/07/27 04:38:58;;;;;;;5.45;0.80;;;;;;;19.38;44.31;101322.03;5029802;28;99033;-70
2022/07/27 04:41:25;;;;;;;10.52;1.45;;;;;;;19.40;44.01;101321.00;5029633;28;99038;-71
2022/07/27 04:43:51;;;;;;;5.78;1.30;;;;;;;19.22;44.10;101323.97;5031444;28;96776;-71
2022/07/27 04:46:19;;;;;;;5.57;1.45;;;;;;;19.38;43.95;101319.34;5032320;27;97028;-70
2022/07/27 04:48:45;;;;;;;8.57;1.10;;;;;;;19.23;44.21;101320.34;5027722;28;98359;-70
2022/07/27 04:51:13;;;;;;;9.45;1.45;;;;;;;19.26;44.32;101318.31;5030601;27;98957;-70
2022/07/27 04:53:40;;;;;;;5.80;1.17;;;;;;;19.45;43.76;101323.38;5026959;28;96755;-70
2022/07/27 04:56:07;;;;;;;4.00;0.77;;;;;;;19.87;43.06;101327.84;5033523;28;97317;-70
2022/07/27 04:58:33;;;;;;;4.97;1.20;;;;;;;20.00;42.59;101326.09;5032196;27;100747;-70
2022/07/27 05:00:59;;;;;;;5.38;1.38;;;;;;;19.83;42.73;101321.78;5034780;27;98254;-71
2022/07/27 05:03:27;;;;;;;5.90;0.98;;;;;;;20.15;42.18;101321.53;5032637;28;97460;-70
2022/07/27 05:05:53;;;;;;;6.05;1.23;;;;;;;20.46;41.34;101323.06;5034590;27;97075;-70
2022/07/27 05:08:20;;;;;;;4.00;0.90;;;;;;;20.61;41.25;101324.72;5031762;27;99414;-69
2022/07/27 05:10:46;;;;;;;7.45;1.13;;;;;;;21.09;40.48;101323.13;5031076;27;99172;-70
2022/07/27 05:13:13;;;;;;;6.07;1.23;;;;;;;20.43;40.98;101332.16;5031747;28;97279;-70
2022/07/27 05:15:40;;;;;;;9.00;1.20;;;;;;;20.15;42.07;101335.78;5033501;28;97039;-70
2022/07/27 05:18:07;;;;;;;9.35;1.33;;;;;;;20.24;41.74;101337.88;5031073;27;99401;-70
2022/07/27 05:20:35;;;;;;;8.73;1.20;;;;;;;20.15;42.23;101329.59;5028279;28;98774;-72
2022/07/27 05:23:01;;;;;;;6.10;1.17;;;;;;;20.21;42.06;101331.84;5032872;28;97271;-71
2022/07/27 05:25:28;;;;;;;3.60;1.00;;;;;;;19.96;42.87;101343.31;5030374;27;97301;-70
2022/07/27 05:27:54;;;;;;;8.07;1.02;;;;;;;20.19;42.22;101348.06;5030884;28;99319;-69
2022/07/27 05:30:23;;;;;;;7.28;1.40;;;;;;;19.90;42.82;101354.44;5027402;27;99485;-71
2022/07/27 05:32:49;;;;;;;6.13;1.10;;;;;;;19.49;44.14;101349.06;5029757;28;96975;-71
2022/07/27 05:35:15;;;;;;;5.90;1.23;;;;;;;19.68;43.94;101354.13;5029800;27;96891;-72
2022/07/27 05:37:43;;;;;;;8.23;1.23;;;;;;;19.91;43.69;101358.84;5029989;28;98871;-70
2022/07/27 05:40:11;;;;;;;5.40;0.90;;;;;;;20.13;43.29;101363.69;5027688;27;99114;-70
2022/07/27 05:42:38;;;;;;;5.93;1.30;;;;;;;20.28;43.35;101363.53;5028684;27;97445;-70
2022/07/27 05:45:05;;;;;;;8.90;1.33;;;;;;;20.24;43.46;101362.03;5027406;27;97686;-71
2022/07/27 05:47:31;;;;;;;5.43;0.82;;;;;;;20.14;44.00;101374.34;5028820;28;99003;-70
2022/07/27 05:49:58;;;;;;;6.35;1.23;;;;;;;20.54;43.34;101371.72;5032576;27;98931;-71
2022/07/27 05:52:24;;;;;;;4.63;1.58;;;;;;;20.76;42.89;101373.81;5028741;28;97884;-71
2022/07/27 05:54:52;;;;;;;6.47;1.13;;;;;;;20.93;42.44;101377.06;5031935;27;96935;-70
2022/07/27 05:57:18;;;;;;;10.13;1.58;;;;;;;21.24;42.04;101380.34;5032721;27;99007;-70
2022/07/27 05:59:44;;;;;;;4.72;0.90;;;;;;;20.98;42.09;101382.97;5025272;27;99102;-71
2022/07/27 06:02:11;;;;;;;5.82;1.65;;;;;;;21.49;41.42;101383.03;5029084;27;96865;-71
2022/07/27 06:04:37;;;;;;;5.30;1.35;;;;;;;21.34;41.66;101373.34;5027111;27;98012;-70
2022/07/27 06:09:47;;;;;;;10.35;0.75;;;;;;;22.03;40.11;101375.53;5025462;28;97119;-70
2022/07/27 06:12:15;;;;;;;7.88;1.35;;;;;;;21.84;40.39;101380.50;5032444;28;97197;-70
2022/07/27 06:14:41;;;;;;;5.65;0.88;;;;;;;21.82;40.50;101380.59;5033400;27;96863;-70
2022/07/27 06:17:09;;;;;;;10.13;1.20;;;;;;;21.85;39.95;101383.09;5029594;28;99139;-71
2022/07/27 06:19:38;;;;;;;9.18;1.48;;;;;;;21.75;40.51;101379.31;5028885;27;99413;-70
2022/07/27 06:22:04;;;;;;;10.10;1.17;;;;;;;22.02;39.88;101381.88;5031595;28;97183;-70
2022/07/27 06:24:31;;;;;;;7.40;1.83;;;;;;;21.85;40.06;101377.72;5033667;28;96910;-70
2022/07/27 06:26:57;;;;;;;3.78;1.20;;;;;;;21.85;39.87;101369.63;5032429;28;97652;-69
2022/07/27 06:29:25;;;;;;;7.30;1.00;;;;;;;22.36;38.32;101374.84;5030852;28;101646;-69
2022/07/27 06:31:51;;;;;;;12.07;2.03;;;;;;;22.40;38.26;101373.66;5032426;27;97150;-70
2022/07/27 06:34:18;;;;;;;8.93;1.40;;;;;;;22.39;38.02;101376.44;5033894;27;97204;-71
2022/07/27 06:36:45;;;;;;;6.28;1.17;;;;;;;22.87;37.42;101372.75;5031161;28;98813;-71
2022/07/27 06:39:11;;;;;;;6.32;1.30;;;;;;;22.75;37.18;101373.72;5032934;27;99952;-71
2022/07/27 06:41:38;;;;;;;6.38;0.75;;;;;;;22.41;37.93;101372.69;5032758;27;97248;-70
2022/07/27 06:44:05;;;;;;;6.10;0.80;;;;;;;22.05;38.65;101378.13;5032842;27;97256;-70
2022/07/27 06:46:33;;;;;;;8.20;1.23;;;;;;;21.90;38.77;101379.19;5032305;27;98938;-72
2022/07/27 06:48:59;;;;;;;5.07;1.00;;;;;;;21.94;39.28;101380.69;5036284;27;99063;-70
2022/07/27 06:51:26;;;;;;;10.55;1.38;;;;;;;21.46;40.69;101388.63;5036003;27;97007;-70
2022/07/27 06:53:53;;;;;;;5.13;1.00;;;;;;;21.25;40.71;101384.75;5036197;28;96785;-70
2022/07/27 06:56:19;;;;;;;8.20;1.30;;;;;;;21.58;39.91;101384.22;5035018;28;99528;-70
2022/07/27 06:58:46;;;;;;;6.55;1.00;;;;;;;22.02;39.07;101384.56;5034599;27;99105;-70
2022/07/27 07:01:14;;;;;;;6.47;1.23;;;;;;;22.09;38.69;101379.59;5029857;28;97083;-70
2022/07/27 07:03:41;;;;;;;9.73;1.00;;;;;;;22.39;38.32;101380.00;5034076;27;96797;-71
2022/07/27 07:06:08;;;;;;;7.35;1.60;;;;;;;22.83;37.57;101381.22;5034712;28;99080;-71
2022/07/27 07:08:34;;;;;;;8.65;2.08;;;;;;;22.86;37.28;101380.97;5033794;28;98969;-70
2022/07/27 07:11:01;;;;;;;9.68;1.38;;;;;;;22.01;37.86;101381.97;5033726;28;96690;-70
2022/07/27 07:13:27;;;;;;;4.65;1.15;;;;;;;22.25;38.21;101391.78;5035037;28;96931;-70
2022/07/27 07:15:53;;;;;;;9.52;1.45;;;;;;;22.27;38.23;101400.63;5034867;27;101680;-70
2022/07/27 07:18:20;;;;;;;4.28;1.20;;;;;;;22.55;37.55;101388.66;5034299;28;99012;-70
2022/07/27 07:20:51;;;;;;;4.55;1.27;;;;;;;22.71;37.08;101385.66;5035071;27;96940;-71
2022/07/27 07:23:17;;;;;;;5.07;1.83;;;;;;;23.07;36.72;101384.69;5034985;28;96813;-71
2022/07/27 07:25:44;;;;;;;6.32;0.90;;;;;;;23.57;35.80;101387.97;5029769;28;97975;-72
2022/07/27 07:28:10;;;;;;;8.20;1.75;;;;;;;23.66;35.34;101381.84;5020831;27;98119;-71
2022/07/27 07:30:37;;;;;;;4.72;0.95;;;;;;;23.76;34.87;101388.25;5029942;27;97011;-71
2022/07/27 07:33:03;;;;;;;6.30;0.90;;;;;;;24.19;34.29;101391.88;5033906;27;97274;-71
2022/07/27 07:35:30;;;;;;;4.82;1.00;;;;;;;24.26;33.17;101397.63;5036812;27;99137;-71
2022/07/27 07:37:58;;;;;;;4.32;0.82;;;;;;;24.23;32.90;101398.72;5032420;28;101065;-71
2022/07/27 07:40:25;;;;;;;5.72;1.00;;;;;;;23.80;33.41;101395.94;5034933;27;96814;-71
2022/07/27 07:42:54;;;;;;;9.20;2.67;;;;;;;23.83;32.95;101402.91;5036113;27;97293;-71
2022/07/27 07:45:21;;;;;;;4.63;0.68;;;;;;;23.28;33.55;101393.81;5035169;27;100774;-71
2022/07/27 07:47:48;;;;;;;11.07;1.77;;;;;;;23.49;33.88;101396.69;5032406;28;97850;-70
2022/07/27 07:50:15;;;;;;;4.10;0.80;;;;;;;23.63;33.39;101401.81;5027981;27;98314;-70
2022/07/27 07:52:42;;;;;;;4.68;0.70;;;;;;;22.60;34.05;101399.06;5034269;28;97602;-72
2022/07/27 07:55:11;;;;;;;4.35;0.80;;;;;;;23.01;33.85;101390.56;5032979;28;98182;-70
2022/07/27 07:57:37;;;;;;;4.35;0.90;;;;;;;23.34;33.44;101392.47;5031000;27;99015;-70
2022/07/27 08:00:05;;;;;;;2.55;0.63;;;;;;;23.07;33.13;101390.09;5031755;27;96986;-71
2022/07/27 08:02:31;;;;;;;3.90;0.98;;;;;;;22.88;34.03;101387.09;5023434;27;99280;-70
2022/07/27 08:04:58;;;;;;;2.60;0.90;;;;;;;22.86;34.31;101384.50;5033045;28;99340;-70
2022/07/27 08:07:24;;;;;;;7.75;1.98;;;;;;;22.27;35.26;101399.75;5033301;27;98875;-69
2022/07/27 08:09:51;;;;;;;2.92;0.60;;;;;;;22.28;34.15;101396.09;5035642;27;97216;-70
2022/07/27 08:12:18;;;;;;;6.85;0.75;;;;;;;22.78;33.66;101400.41;5035771;27;98606;-71
2022/07/27 08:14:45;;;;;;;6.13;1.15;;;;;;;22.64;33.94;101393.31;5033405;28;99136;-71
2022/07/27 08:17:11;;;;;;;3.80;0.80;;;;;;;22.71;33.84;101407.19;5034495;27;98405;-70
2022/07/27 08:19:38;;;;;;;3.08;0.73;;;;;;;22.78;34.00;101399.53;5026893;27;97169;-70
2022/07/27 08:22:04;;;;;;;2.88;0.80;;;;;;;22.53;33.08;101412.16;5034384;27;97696;-71
2022/07/27 08:24:31;;;;;;;3.83;1.02;;;;;;;22.10;34.09;101414.47;5034238;27;100029;-70
2022/07/27 08:26:57;;;;;;;3.38;1.10;;;;;;;21.94;34.61;101412.97;5035931;27;97506;-70
2022/07/27 08:29:25;;;;;;;3.63;1.30;;;;;;;21.66;35.80;101412.25;5030679;27;97678;-71
2022/07/27 08:31:51;;;;;;;4.07;1.00;;;;;;;22.00;35.59;101407.16;5035929;27;96809;-70
2022/07/27 08:34:17;;;;;;;6.18;0.80;;;;;;;22.21;35.23;101416.38;5035357;27;98960;-72
2022/07/27 08:36:44;;;;;;;8.57;1.25;;;;;;;22.54;35.17;101410.31;5032816;27;101893;-70
2022/07/27 08:39:10;;;;;;;6.90;1.15;;;;;;;22.52;35.01;101413.13;5037348;27;96813;-72
2022/07/27 08:41:39;;;;;;;6.10;1.30;;;;;;;22.66;34.17;101414.78;5034937;27;96838;-71
2022/07/27 08:44:06;;;;;;;2.33;0.80;;;;;;;22.74;33.70;101411.53;5032867;28;97765;-72
2022/07/27 08:46:36;;;;;;;2.13;0.60;;;;;;;22.99;33.49;101420.31;5034593;27;98946;-71
2022/07/27 08:49:03;;;;;;;3.35;0.50;;;;;;;23.36;33.18;101418.34;5030762;28;96784;-71
2022/07/27 08:51:29;;;;;;;4.10;0.70;;;;;;;23.08;32.64;101420.59;5033171;27;96852;-71
2022/07/27 08:53:56;;;;;;;2.40;0.70;;;;;;;23.33;32.39;101421.25;5030746;27;99120;-72
2022/07/27 08:56:22;;;;;;;6.30;1.55;;;;;;;23.05;32.52;101427.94;5031615;27;99108;-72
2022/07/27 08:58:49;;;;;;;7.35;1.95;;;;;;;22.90;33.51;101418.34;5034319;27;97021;-70
2022/07/27 09:01:18;;;;;;;3.42;0.50;;;;;;;22.69;33.86;101427.16;5033799;27;97119;-72
2022/07/27 09:03:46;;;;;;;10.10;0.85;;;;;;;23.10;33.55;101426.75;5029884;28;98835;-72
2022/07/27 09:06:13;;;;;;;7.50;1.15;;;;;;;24.24;32.55;101415.78;5032912;27;100688;-71
2022/07/27 09:08:40;;;;;;;3.88;0.82;;;;;;;24.89;31.13;101422.94;5030305;27;98230;-71
2022/07/27 09:11:15;;;;;;;3.33;0.90;;;;;;;25.28;30.17;101415.97;5034043;27;98489;-72
2022/07/27 09:13:42;;;;;;;3.53;0.93;;;;;;;25.34;30.02;101416.31;5033900;27;97838;-71
2022/07/27 09:16:10;;;;;;;6.13;1.08;;;;;;;24.99;29.27;101419.38;5033633;27;102236;-71
2022/07/27 09:18:38;;;;;;;4.63;0.77;;;;;;;25.01;29.87;101416.50;5031256;28;97050;-71
2022/07/27 09:21:12;;;;;;;4.60;0.80;;;;;;;24.66;30.50;101416.78;5034754;27;97266;-71
2022/07/27 09:23:40;;;;;;;4.53;1.02;;;;;;;24.30;30.71;101426.09;5032944;28;99584;-71
2022/07/27 09:26:11;;;;;;;3.50;0.70;;;;;;;24.52;31.41;101431.44;5032202;28;99147;-72
2022/07/27 09:28:38;;;;;;;5.65;1.35;;;;;;;25.19;30.67;101431.19;5032806;27;97235;-71
2022/07/27 09:31:07;;;;;;;4.15;0.60;;;;;;;25.16;30.00;101420.59;5033448;28;96972;-71
2022/07/27 09:33:42;;;;;;;4.15;0.77;;;;;;;24.65;30.03;101430.41;5032669;27;98266;-71
2022/07/27 09:36:10;;;;;;;2.28;0.70;;;;;;;23.76;31.46;101432.25;5029593;27;99545;-71
2022/07/27 09:38:36;;;;;;;4.93;2.05;;;;;;;23.75;31.45;101427.84;5031494;27;97067;-71
2022/07/27 09:41:05;;;;;;;3.28;0.90;;;;;;;24.26;30.98;101429.16;5034297;27;97237;-71
2022/07/27 09:43:43;;;;;;;5.00;0.80;;;;;;;23.89;30.45;101425.88;5032633;27;99362;-72
2022/07/27 09:46:10;;;;;;;4.53;0.75;;;;;;;24.03;30.61;101420.19;5032394;27;101304;-70
2022/07/27 09:48:37;;;;;;;3.15;1.00;;;;;;;24.27;30.76;101420.09;5031212;27;97544;-70
2022/07/27 09:51:06;;;;;;;3.33;0.85;;;;;;;24.57;30.29;101433.75;5032096;28;97532;-70
2022/07/27 09:53:34;;;;;;;4.05;1.02;;;;;;;24.84;29.94;101415.22;5032842;28;98292;-71
2022/07/27 09:56:04;;;;;;;4.68;0.80;;;;;;;25.05;29.15;101415.28;5028659;27;97628;-68
2022/07/27 09:58:45;;;;;;;5.40;1.00;;;;;;;24.96;29.21;101422.31;5029730;27;97011;-69
2022/07/27 10:01:13;;;;;;;5.93;1.08;;;;;;;25.01;29.69;101420.06;5028452;27;97037;-69
2022/07/27 10:03:41;;;;;;;4.93;0.82;;;;;;;25.17;29.25;101424.16;5028987;28;98480;-67
2022/07/27 10:06:09;;;;;;;2.83;0.80;;;;;;;25.41;29.01;101413.91;5032752;27;99903;-68
2022/07/27 10:08:39;;;;;;;4.57;0.77;;;;;;;25.06;28.41;101405.31;5028912;27;97436;-68
2022/07/27 10:11:05;;;;;;;3.35;0.93;;;;;;;25.28;28.78;101413.28;5026472;27;96887;-68
2022/07/27 10:13:32;;;;;;;3.38;0.65;;;;;;;25.14;28.42;101410.94;5028304;27;99174;-68
2022/07/27 10:16:00;;;;;;;4.38;0.85;;;;;;;24.87;29.22;101417.69;5032179;27;97564;-68
2022/07/27 10:18:42;;;;;;;3.03;1.10;;;;;;;25.51;28.71;101409.44;5027961;28;96832;-69
2022/07/27 10:21:10;;;;;;;4.65;1.48;;;;;;;25.90;28.39;101401.50;5025837;27;97323;-68
2022/07/27 10:23:42;;;;;;;5.57;1.17;;;;;;;26.50;28.08;101404.09;5032441;28;99232;-68
2022/07/27 10:26:16;;;;;;;4.95;0.90;;;;;;;26.19;28.25;101407.84;5027065;27;99155;-68
2022/07/27 10:28:49;;;;;;;3.92;0.90;;;;;;;25.97;28.66;101408.94;5030205;27;97175;-69
2022/07/27 10:31:18;;;;;;;4.95;1.20;;;;;;;26.09;28.07;101415.97;5032666;27;96809;-68
2022/07/27 10:33:47;;;;;;;4.70;1.00;;;;;;;25.74;28.58;101408.28;5032067;27;98173;-68
2022/07/27 10:36:33;;;;;;;5.65;1.05;;;;;;;25.91;28.51;101409.50;5031514;27;98874;-69
2022/07/27 10:39:04;;;;;;;4.50;0.80;;;;;;;25.15;29.30;101418.03;5030799;28;97447;-68
2022/07/27 10:41:32;;;;;;;2.58;0.60;;;;;;;24.54;29.61;101412.41;5033720;27;96697;-69
2022/07/27 10:44:27;;;;;;;2.72;1.42;;;;;;;24.40;30.77;101408.16;5029493;28;99297;-69
2022/07/27 10:46:55;;;;;;;2.67;1.10;;;;;;;25.44;29.21;101400.13;5031515;28;99124;-69
2022/07/27 10:49:24;;;;;;;5.38;1.45;;;;;;;24.66;29.69;101411.38;5030898;27;97109;-69
2022/07/27 10:51:53;;;;;;;4.90;2.05;;;;;;;25.28;29.44;101403.31;5034078;27;96810;-68
2022/07/27 10:54:24;;;;;;;3.28;0.73;;;;;;;25.33;28.88;101403.78;5031206;28;102024;-68
2022/07/27 10:56:52;;;;;;;9.63;0.90;;;;;;;24.89;29.49;101415.72;5031357;28;98945;-68
2022/07/27 10:59:50;;;;;;;7.20;0.98;;;;;;;24.69;29.44;101410.25;5030094;27;97591;-69
2022/07/27 11:02:36;;;;;;;2.97;0.85;;;;;;;24.65;30.02;101403.38;5031645;27;97037;-69
2022/07/27 11:05:04;;;;;;;7.43;1.10;;;;;;;24.11;30.46;101405.09;5031327;27;98057;-68
2022/07/27 11:07:31;;;;;;;3.85;0.73;;;;;;;24.67;30.19;101414.94;5031855;27;99779;-70
2022/07/27 11:10:03;;;;;;;4.90;1.00;;;;;;;25.37;29.34;101394.41;5031897;27;97216;-66
2022/07/27 11:12:30;;;;;;;4.65;1.13;;;;;;;25.65;28.67;101400.13;5030002;27;96733;-67
2022/07/27 11:14:58;;;;;;;3.42;1.00;;;;;;;25.82;28.72;101394.06;5031801;27;98602;-67
2022/07/27 11:17:26;;;;;;;4.82;0.88;;;;;;;25.41;29.14;101392.28;5030263;27;99198;-67
2022/07/27 11:19:53;;;;;;;3.35;0.80;;;;;;;25.07;29.64;101405.19;5034336;27;97409;-67
2022/07/27 11:22:29;;;;;;;8.98;1.27;;;;;;;25.50;29.27;101394.19;5033442;27;96949;-66
2022/07/27 11:24:55;;;;;;;;;;;;;;;25.59;28.70;101389.84;5029531;28;99461;-67
2022/07/27 11:27:23;;;;;;;5.63;0.82;;;;;;;25.29;28.65;101387.94;5030741;28;99445;-67
2022/07/27 11:29:50;;;;;;;5.28;1.00;;;;;;;25.34;29.75;101388.41;5029513;28;97291;-66
2022/07/27 11:32:18;;;;;;;5.53;1.08;;;;;;;25.54;29.42;101382.09;5031070;27;96865;-66